createdAt,value
2018-05-03T00:00:46.397Z,14.10
2018-05-03T00:01:47.068Z,14.14
2018-05-03T00:02:47.741Z,14.18
2018-05-03T00:03:48.414Z,14.07
2018-05-03T00:04:49.085Z,14.05
2018-05-03T00:05:49.757Z,14.11
2018-05-03T00:06:50.430Z,14.08
2018-05-03T00:07:51.099Z,14.05
2018-05-03T00:08:51.773Z,14.11
2018-05-03T00:09:52.443Z,14.11
2018-05-03T00:10:53.116Z,14.17
2018-05-03T00:11:53.799Z,14.07
2018-05-03T00:12:54.469Z,14.11
2018-05-03T00:13:55.141Z,14.22
2018-05-03T00:14:55.814Z,13.99
2018-05-03T00:15:56.488Z,13.79
2018-05-03T00:16:57.155Z,13.95
2018-05-03T00:17:57.831Z,14.04
2018-05-03T00:18:58.505Z,13.96
2018-05-03T00:19:59.178Z,14.03
2018-05-03T00:20:59.850Z,14.07
2018-05-03T00:22:00.520Z,14.11
2018-05-03T00:23:01.199Z,14.04
2018-05-03T00:24:01.874Z,14.08
2018-05-03T00:25:02.584Z,14.17
2018-05-03T00:26:03.217Z,14.08
2018-05-03T00:27:03.891Z,14.20
2018-05-03T00:28:04.561Z,14.07
2018-05-03T00:29:05.233Z,14.08
2018-05-03T00:30:05.904Z,14.10
2018-05-03T00:31:06.584Z,14.05
2018-05-03T00:32:07.257Z,14.11
2018-05-03T00:33:07.928Z,14.15
2018-05-03T00:34:08.601Z,14.17
2018-05-03T00:35:09.273Z,14.10
2018-05-03T00:36:09.944Z,14.12
2018-05-03T00:37:10.616Z,14.10
2018-05-03T00:38:11.288Z,14.17
2018-05-03T00:39:11.964Z,14.05
2018-05-03T00:40:12.635Z,14.05
2018-05-03T00:41:13.309Z,14.04
2018-05-03T00:42:13.979Z,14.05
2018-05-03T00:43:14.652Z,14.05
2018-05-03T00:44:15.329Z,13.93
2018-05-03T00:45:16.000Z,13.87
2018-05-03T00:46:16.673Z,13.93
2018-05-03T00:47:17.346Z,13.96
2018-05-03T00:48:18.021Z,13.89
2018-05-03T00:49:18.695Z,13.81
2018-05-03T00:50:19.364Z,13.77
2018-05-03T00:51:20.034Z,13.78
2018-05-03T00:52:20.708Z,13.92
2018-05-03T00:53:21.383Z,13.87
2018-05-03T00:54:22.055Z,13.86
2018-05-03T00:55:22.726Z,13.87
2018-05-03T00:56:23.398Z,13.81
2018-05-03T00:57:24.067Z,13.75
2018-05-03T00:58:24.739Z,13.74
2018-05-03T00:59:25.414Z,13.74
2018-05-03T01:00:26.090Z,13.71
2018-05-03T01:01:26.763Z,13.68
2018-05-03T01:02:27.433Z,13.65
2018-05-03T01:03:28.106Z,13.68
2018-05-03T01:04:28.775Z,13.47
2018-05-03T01:05:29.450Z,13.44
2018-05-03T01:06:30.123Z,13.37
2018-05-03T01:07:30.803Z,13.41
2018-05-03T01:08:31.480Z,13.41
2018-05-03T01:09:32.157Z,13.50
2018-05-03T01:10:32.829Z,13.42
2018-05-03T01:11:33.506Z,13.27
2018-05-03T01:12:34.175Z,13.41
2018-05-03T01:13:34.846Z,13.28
2018-05-03T01:14:35.516Z,13.23
2018-05-03T01:15:36.199Z,13.27
2018-05-03T01:16:36.873Z,13.28
2018-05-03T01:17:37.544Z,13.20
2018-05-03T01:18:38.214Z,13.23
2018-05-03T01:19:38.887Z,13.23
2018-05-03T01:20:39.558Z,13.30
2018-05-03T01:21:40.230Z,13.38
2018-05-03T01:22:40.904Z,13.35
2018-05-03T01:23:41.574Z,13.41
2018-05-03T01:24:42.248Z,13.27
2018-05-03T01:25:42.918Z,13.25
2018-05-03T01:26:43.597Z,13.41
2018-05-03T01:27:44.267Z,13.33
2018-05-03T01:28:44.936Z,13.30
2018-05-03T01:29:45.609Z,13.31
2018-05-03T01:30:46.283Z,13.33
2018-05-03T01:31:46.955Z,13.25
2018-05-03T01:32:47.627Z,13.12
2018-05-03T01:33:48.297Z,13.12
2018-05-03T01:34:48.968Z,12.95
2018-05-03T01:35:49.638Z,13.04
2018-05-03T01:36:50.309Z,13.13
2018-05-03T01:37:50.984Z,13.18
2018-05-03T01:38:51.656Z,13.20
2018-05-03T01:39:52.326Z,13.19
2018-05-03T01:40:52.996Z,13.22
2018-05-03T01:41:53.668Z,13.13
2018-05-03T01:42:54.354Z,13.18
2018-05-03T01:43:55.022Z,13.03
2018-05-03T01:44:55.695Z,12.78
2018-05-03T01:45:56.366Z,13.04
2018-05-03T01:46:57.040Z,12.95
2018-05-03T01:47:57.709Z,12.94
2018-05-03T01:48:58.397Z,12.98
2018-05-03T01:49:59.064Z,12.98
2018-05-03T01:50:59.738Z,12.94
2018-05-03T01:52:00.409Z,12.94
2018-05-03T01:53:01.087Z,13.03
2018-05-03T01:54:01.751Z,13.01
2018-05-03T01:55:02.425Z,13.09
2018-05-03T01:56:03.102Z,13.03
2018-05-03T01:57:03.773Z,12.95
2018-05-03T01:58:04.442Z,12.91
2018-05-03T01:59:05.117Z,12.91
2018-05-03T02:00:05.793Z,12.80
2018-05-03T02:01:06.462Z,12.86
2018-05-03T02:02:07.131Z,12.78
2018-05-03T02:03:07.802Z,12.76
2018-05-03T02:04:08.476Z,12.78
2018-05-03T02:05:09.145Z,12.73
2018-05-03T02:06:09.816Z,12.72
2018-05-03T02:07:10.488Z,12.68
2018-05-03T02:08:11.161Z,12.67
2018-05-03T02:09:11.829Z,12.67
2018-05-03T02:10:12.496Z,12.62
2018-05-03T02:11:13.164Z,12.49
2018-05-03T02:12:13.838Z,12.65
2018-05-03T02:13:14.507Z,12.62
2018-05-03T02:14:15.176Z,12.60
2018-05-03T02:15:15.848Z,12.50
2018-05-03T02:16:16.519Z,12.49
2018-05-03T02:17:17.233Z,12.45
2018-05-03T02:18:17.860Z,12.42
2018-05-03T02:19:18.543Z,12.46
2018-05-03T02:20:19.213Z,12.37
2018-05-03T02:21:19.886Z,12.45
2018-05-03T02:22:20.559Z,12.47
2018-05-03T02:23:21.232Z,12.37
2018-05-03T02:24:21.895Z,12.50
2018-05-03T02:25:22.572Z,12.47
2018-05-03T02:27:23.917Z,12.49
2018-05-03T02:28:24.588Z,12.36
2018-05-03T02:29:25.259Z,12.37
2018-05-03T02:30:25.928Z,12.37
2018-05-03T02:31:26.597Z,12.53
2018-05-03T02:32:27.271Z,12.53
2018-05-03T02:33:27.941Z,12.43
2018-05-03T02:34:28.611Z,12.40
2018-05-03T02:35:29.283Z,12.49
2018-05-03T02:36:30.005Z,12.39
2018-05-03T02:37:30.627Z,12.42
2018-05-03T02:38:31.303Z,12.40
2018-05-03T02:39:31.968Z,12.40
2018-05-03T02:40:32.640Z,12.46
2018-05-03T02:41:33.315Z,12.50
2018-05-03T02:42:33.989Z,12.40
2018-05-03T02:43:34.661Z,12.39
2018-05-03T02:44:35.344Z,12.40
2018-05-03T02:45:36.012Z,12.47
2018-05-03T02:46:36.684Z,12.37
2018-05-03T02:47:37.353Z,12.35
2018-05-03T02:48:38.030Z,12.47
2018-05-03T02:49:38.698Z,12.54
2018-05-03T02:50:39.367Z,12.50
2018-05-03T02:51:40.044Z,12.60
2018-05-03T02:52:40.709Z,12.49
2018-05-03T02:53:41.382Z,12.36
2018-05-03T02:54:42.051Z,12.36
2018-05-03T02:55:42.720Z,12.37
2018-05-03T02:56:43.399Z,12.47
2018-05-03T02:57:44.067Z,12.49
2018-05-03T02:58:44.737Z,12.43
2018-05-03T02:59:45.410Z,12.47
2018-05-03T03:00:46.086Z,12.47
2018-05-03T03:01:46.764Z,12.50
2018-05-03T03:02:47.436Z,12.45
2018-05-03T03:03:48.113Z,12.39
2018-05-03T03:04:48.781Z,12.39
2018-05-03T03:05:49.458Z,12.37
2018-05-03T03:06:50.125Z,12.37
2018-05-03T03:07:50.796Z,12.45
2018-05-03T03:08:51.474Z,12.46
2018-05-03T03:09:52.137Z,12.42
2018-05-03T03:10:52.823Z,12.39
2018-05-03T03:11:53.494Z,12.36
2018-05-03T03:12:54.175Z,12.45
2018-05-03T03:13:54.845Z,12.31
2018-05-03T03:14:55.517Z,12.37
2018-05-03T03:15:56.189Z,12.36
2018-05-03T03:16:56.862Z,12.32
2018-05-03T03:17:57.538Z,12.29
2018-05-03T03:18:58.206Z,12.28
2018-05-03T03:19:58.874Z,12.27
2018-05-03T03:20:59.556Z,12.25
2018-05-03T03:22:00.294Z,12.27
2018-05-03T03:23:00.898Z,12.31
2018-05-03T03:24:01.627Z,12.28
2018-05-03T03:25:02.298Z,12.35
2018-05-03T03:26:02.975Z,12.32
2018-05-03T03:27:03.656Z,12.25
2018-05-03T03:28:04.330Z,12.31
2018-05-03T03:29:05.002Z,12.27
2018-05-03T03:30:05.676Z,12.31
2018-05-03T03:31:06.354Z,12.22
2018-05-03T03:32:07.024Z,12.28
2018-05-03T03:33:07.691Z,12.27
2018-05-03T03:34:08.369Z,12.20
2018-05-03T03:35:09.039Z,12.13
2018-05-03T03:36:09.709Z,12.22
2018-05-03T03:37:10.379Z,12.25
2018-05-03T03:38:11.052Z,12.25
2018-05-03T03:39:11.723Z,12.20
2018-05-03T03:40:12.400Z,12.21
2018-05-03T03:41:13.068Z,12.24
2018-05-03T03:42:13.746Z,12.24
2018-05-03T03:43:14.423Z,12.13
2018-05-03T03:44:15.093Z,12.10
2018-05-03T03:45:15.767Z,12.22
2018-05-03T03:46:16.437Z,12.21
2018-05-03T03:47:17.110Z,12.21
2018-05-03T03:48:17.784Z,12.27
2018-05-03T03:49:18.460Z,12.31
2018-05-03T03:50:19.139Z,12.27
2018-05-03T03:51:19.816Z,12.24
2018-05-03T03:52:20.485Z,12.24
2018-05-03T03:53:21.232Z,12.20
2018-05-03T03:54:21.824Z,12.31
2018-05-03T03:55:22.497Z,12.24
2018-05-03T03:56:23.172Z,12.29
2018-05-03T03:57:23.847Z,12.29
2018-05-03T03:58:24.522Z,12.31
2018-05-03T03:59:25.193Z,12.31
2018-05-03T04:00:25.866Z,12.31
2018-05-03T04:01:26.540Z,12.29
2018-05-03T04:02:27.421Z,12.27
2018-05-03T04:03:28.094Z,12.25
2018-05-03T04:04:28.768Z,12.31
2018-05-03T04:05:29.450Z,12.31
2018-05-03T04:06:30.123Z,12.18
2018-05-03T04:07:30.798Z,12.28
2018-05-03T04:08:31.468Z,12.31
2018-05-03T04:09:32.143Z,12.35
2018-05-03T04:10:32.817Z,12.32
2018-05-03T04:11:33.498Z,12.37
2018-05-03T04:12:34.172Z,12.42
2018-05-03T04:13:34.845Z,12.35
2018-05-03T04:14:35.528Z,12.42
2018-05-03T04:15:36.199Z,12.40
2018-05-03T04:16:36.914Z,12.40
2018-05-03T04:17:37.554Z,12.40
2018-05-03T04:18:38.228Z,12.37
2018-05-03T04:19:38.901Z,12.36
2018-05-03T04:20:39.569Z,12.43
2018-05-03T04:21:40.241Z,12.43
2018-05-03T04:22:40.914Z,12.40
2018-05-03T04:23:41.596Z,12.49
2018-05-03T04:24:42.266Z,12.39
2018-05-03T04:25:42.949Z,12.40
2018-05-03T04:26:43.628Z,12.31
2018-05-03T04:27:44.302Z,12.31
2018-05-03T04:28:44.975Z,12.36
2018-05-03T04:29:45.648Z,12.28
2018-05-03T04:30:46.325Z,12.35
2018-05-03T04:31:47.006Z,12.31
2018-05-03T04:32:47.680Z,12.29
2018-05-03T04:33:48.357Z,12.35
2018-05-03T04:34:49.033Z,12.39
2018-05-03T04:35:49.708Z,12.39
2018-05-03T04:36:50.381Z,12.37
2018-05-03T04:37:51.055Z,12.49
2018-05-03T04:38:51.729Z,12.49
2018-05-03T04:39:52.409Z,12.57
2018-05-03T04:40:53.087Z,12.58
2018-05-03T04:41:53.765Z,12.49
2018-05-03T04:42:54.432Z,12.50
2018-05-03T04:43:55.109Z,12.61
2018-05-03T04:44:55.812Z,12.60
2018-05-03T04:45:56.457Z,12.60
2018-05-03T04:46:57.143Z,12.64
2018-05-03T04:47:57.802Z,12.62
2018-05-03T04:48:58.475Z,12.68
2018-05-03T04:49:59.152Z,12.72
2018-05-03T04:50:59.829Z,12.65
2018-05-03T04:52:00.499Z,12.67
2018-05-03T04:53:01.176Z,12.76
2018-05-03T04:54:01.845Z,12.85
2018-05-03T04:55:02.524Z,12.86
2018-05-03T04:56:03.198Z,12.83
2018-05-03T04:57:03.875Z,12.78
2018-05-03T04:58:04.557Z,12.93
2018-05-03T04:59:05.232Z,12.93
2018-05-03T05:00:05.901Z,12.94
2018-05-03T05:01:06.586Z,12.94
2018-05-03T05:02:07.267Z,12.87
2018-05-03T05:03:07.941Z,12.97
2018-05-03T05:04:08.618Z,12.95
2018-05-03T05:05:09.292Z,12.98
2018-05-03T05:06:09.966Z,12.98
2018-05-03T05:07:10.639Z,13.03
2018-05-03T05:08:11.310Z,13.03
2018-05-03T05:09:11.984Z,13.04
2018-05-03T05:10:12.661Z,13.08
2018-05-03T05:11:13.338Z,13.08
2018-05-03T05:12:14.024Z,13.13
2018-05-03T05:13:14.695Z,13.13
2018-05-03T05:14:15.368Z,13.15
2018-05-03T05:15:16.045Z,13.23
2018-05-03T05:16:16.722Z,13.30
2018-05-03T05:17:17.398Z,13.25
2018-05-03T05:18:18.070Z,13.20
2018-05-03T05:19:18.743Z,13.25
2018-05-03T05:20:19.420Z,13.31
2018-05-03T05:21:20.175Z,13.30
2018-05-03T05:22:20.774Z,13.25
2018-05-03T05:23:21.450Z,13.25
2018-05-03T05:24:22.125Z,13.28
2018-05-03T05:25:22.805Z,13.30
2018-05-03T05:26:23.478Z,13.23
2018-05-03T05:27:24.152Z,13.12
2018-05-03T05:28:24.829Z,13.15
2018-05-03T05:29:25.504Z,13.16
2018-05-03T05:30:26.186Z,13.23
2018-05-03T05:31:26.863Z,13.16
2018-05-03T05:32:27.536Z,13.13
2018-05-03T05:33:28.218Z,13.08
2018-05-03T05:34:28.913Z,13.09
2018-05-03T05:35:29.591Z,13.16
2018-05-03T05:36:30.263Z,13.23
2018-05-03T05:37:30.940Z,13.12
2018-05-03T05:38:31.639Z,13.03
2018-05-03T05:39:32.297Z,13.12
2018-05-03T05:40:32.973Z,13.09
2018-05-03T05:41:33.645Z,13.03
2018-05-03T05:42:34.332Z,13.09
2018-05-03T05:43:35.011Z,13.04
2018-05-03T05:44:35.688Z,13.08
2018-05-03T05:45:36.364Z,13.18
2018-05-03T05:46:37.042Z,13.16
2018-05-03T05:47:37.724Z,13.16
2018-05-03T05:48:38.398Z,13.23
2018-05-03T05:49:39.077Z,13.31
2018-05-03T05:50:39.760Z,13.13
2018-05-03T05:51:40.441Z,13.11
2018-05-03T05:52:41.118Z,13.22
2018-05-03T05:53:41.795Z,13.31
2018-05-03T05:54:42.468Z,13.23
2018-05-03T05:55:43.144Z,13.25
2018-05-03T05:56:43.845Z,13.19
2018-05-03T05:57:44.496Z,13.28
2018-05-03T05:58:45.173Z,13.37
2018-05-03T05:59:45.846Z,13.44
2018-05-03T06:00:46.524Z,13.39
2018-05-03T06:01:47.209Z,13.37
2018-05-03T06:02:47.929Z,13.19
2018-05-03T06:03:48.566Z,13.11
2018-05-03T06:04:49.242Z,13.19
2018-05-03T06:05:49.917Z,13.23
2018-05-03T06:06:50.596Z,13.22
2018-05-03T06:07:51.272Z,13.30
2018-05-03T06:08:51.949Z,13.31
2018-05-03T06:09:52.625Z,13.38
2018-05-03T06:10:53.308Z,13.33
2018-05-03T06:11:53.982Z,13.46
2018-05-03T06:12:54.664Z,13.42
2018-05-03T06:13:55.341Z,13.42
2018-05-03T06:14:56.024Z,13.44
2018-05-03T06:15:56.702Z,13.47
2018-05-03T06:16:57.374Z,13.38
2018-05-03T06:17:58.053Z,13.41
2018-05-03T06:18:58.736Z,13.52
2018-05-03T06:19:59.410Z,13.52
2018-05-03T06:21:00.086Z,13.74
2018-05-03T06:22:00.765Z,13.77
2018-05-03T06:23:01.440Z,13.71
2018-05-03T06:24:02.124Z,13.86
2018-05-03T06:25:02.793Z,13.92
2018-05-03T06:26:03.494Z,13.97
2018-05-03T06:27:04.155Z,13.93
2018-05-03T06:28:04.835Z,14.12
2018-05-03T06:29:05.521Z,14.11
2018-05-03T06:30:06.197Z,14.12
2018-05-03T06:31:06.882Z,14.23
2018-05-03T06:32:07.561Z,14.22
2018-05-03T06:33:08.234Z,14.25
2018-05-03T06:34:08.915Z,14.28
2018-05-03T06:35:09.590Z,14.30
2018-05-03T06:36:10.273Z,14.44
2018-05-03T06:37:10.964Z,14.43
2018-05-03T06:38:11.640Z,14.47
2018-05-03T06:39:12.313Z,14.54
2018-05-03T06:40:13.044Z,14.44
2018-05-03T06:41:13.672Z,14.48
2018-05-03T06:42:14.350Z,14.30
2018-05-03T06:43:15.025Z,14.37
2018-05-03T06:44:15.700Z,14.40
2018-05-03T06:45:16.460Z,14.47
2018-05-03T06:46:17.061Z,14.45
2018-05-03T06:47:17.744Z,14.43
2018-05-03T06:48:18.422Z,14.51
2018-05-03T06:49:19.117Z,14.44
2018-05-03T06:50:19.793Z,14.45
2018-05-03T06:51:20.469Z,14.48
2018-05-03T06:52:21.146Z,14.53
2018-05-03T06:53:21.823Z,14.45
2018-05-03T06:54:22.509Z,14.43
2018-05-03T06:55:23.185Z,14.44
2018-05-03T06:56:23.889Z,14.50
2018-05-03T06:57:24.569Z,14.50
2018-05-03T06:58:25.257Z,14.53
2018-05-03T06:59:25.936Z,14.51
2018-05-03T07:00:26.613Z,14.55
2018-05-03T07:01:27.290Z,14.53
2018-05-03T07:02:27.967Z,14.72
2018-05-03T07:03:28.650Z,14.79
2018-05-03T07:04:29.357Z,14.92
2018-05-03T07:05:30.015Z,14.91
2018-05-03T07:06:30.702Z,15.04
2018-05-03T07:07:31.385Z,15.18
2018-05-03T07:08:32.061Z,15.24
2018-05-03T07:09:32.744Z,15.27
2018-05-03T07:10:33.426Z,15.40
2018-05-03T07:11:34.097Z,15.36
2018-05-03T07:12:34.777Z,15.51
2018-05-03T07:13:35.454Z,15.58
2018-05-03T07:14:36.127Z,15.68
2018-05-03T07:15:36.812Z,15.70
2018-05-03T07:16:37.494Z,15.55
2018-05-03T07:17:38.166Z,15.70
2018-05-03T07:18:38.841Z,15.59
2018-05-03T07:19:39.518Z,15.76
2018-05-03T07:20:40.203Z,15.77
2018-05-03T07:21:40.883Z,15.75
2018-05-03T07:22:41.561Z,15.84
2018-05-03T07:23:42.277Z,15.83
2018-05-03T07:24:42.916Z,15.98
2018-05-03T07:25:43.594Z,16.13
2018-05-03T07:26:44.274Z,16.13
2018-05-03T07:27:44.950Z,16.21
2018-05-03T07:28:45.629Z,16.31
2018-05-03T07:29:46.304Z,16.36
2018-05-03T07:30:46.990Z,16.36
2018-05-03T07:31:47.666Z,16.46
2018-05-03T07:32:48.346Z,16.46
2018-05-03T07:33:49.027Z,16.57
2018-05-03T07:34:49.797Z,16.53
2018-05-03T07:35:50.393Z,16.50
2018-05-03T07:36:51.063Z,16.57
2018-05-03T07:37:51.747Z,16.49
2018-05-03T07:38:52.425Z,16.39
2018-05-03T07:39:53.106Z,16.46
2018-05-03T07:40:53.830Z,16.68
2018-05-03T07:41:54.461Z,16.54
2018-05-03T07:42:55.139Z,16.57
2018-05-03T07:43:55.817Z,16.74
2018-05-03T07:44:56.499Z,16.68
2018-05-03T07:45:57.180Z,16.69
2018-05-03T07:46:57.857Z,16.86
2018-05-03T07:47:58.534Z,16.93
2018-05-03T07:48:59.214Z,17.02
2018-05-03T07:49:59.868Z,17.01
2018-05-03T07:51:00.556Z,16.81
2018-05-03T07:52:01.232Z,16.86
2018-05-03T07:53:01.906Z,16.87
2018-05-03T07:54:02.595Z,16.97
2018-05-03T07:55:03.268Z,17.04
2018-05-03T07:56:03.951Z,16.94
2018-05-03T07:57:04.635Z,16.97
2018-05-03T07:58:05.313Z,16.84
2018-05-03T07:59:05.993Z,16.93
2018-05-03T08:00:06.671Z,16.97
2018-05-03T08:01:07.348Z,17.05
2018-05-03T08:02:08.088Z,16.94
2018-05-03T08:03:08.703Z,17.04
2018-05-03T08:04:09.378Z,17.01
2018-05-03T08:05:10.057Z,17.08
2018-05-03T08:06:10.733Z,17.09
2018-05-03T08:07:11.410Z,17.12
2018-05-03T08:08:12.083Z,17.31
2018-05-03T08:09:12.765Z,17.48
2018-05-03T08:10:13.454Z,17.44
2018-05-03T08:11:14.133Z,17.57
2018-05-03T08:12:14.809Z,17.39
2018-05-03T08:13:15.489Z,17.46
2018-05-03T08:14:16.163Z,17.42
2018-05-03T08:15:16.847Z,17.44
2018-05-03T08:16:17.522Z,17.57
2018-05-03T08:17:18.198Z,17.74
2018-05-03T08:18:18.878Z,17.90
2018-05-03T08:19:19.553Z,17.52
2018-05-03T08:20:20.235Z,17.56
2018-05-03T08:21:20.917Z,17.71
2018-05-03T08:22:21.682Z,17.59
2018-05-03T08:23:22.275Z,17.59
2018-05-03T08:24:22.957Z,17.60
2018-05-03T08:25:23.634Z,17.57
2018-05-03T08:26:24.316Z,17.70
2018-05-03T08:27:25.000Z,17.74
2018-05-03T08:28:25.683Z,17.71
2018-05-03T08:29:26.361Z,17.70
2018-05-03T08:30:27.044Z,17.79
2018-05-03T08:31:27.728Z,17.68
2018-05-03T08:32:28.409Z,17.76
2018-05-03T08:33:29.089Z,17.76
2018-05-03T08:34:29.768Z,17.85
2018-05-03T08:35:30.445Z,17.85
2018-05-03T08:36:31.129Z,17.72
2018-05-03T08:37:31.808Z,17.98
2018-05-03T08:38:32.496Z,18.19
2018-05-03T08:39:33.174Z,18.25
2018-05-03T08:40:33.854Z,18.50
2018-05-03T08:41:34.534Z,18.41
2018-05-03T08:42:35.221Z,18.52
2018-05-03T08:43:35.894Z,18.23
2018-05-03T08:44:36.573Z,18.55
2018-05-03T08:45:37.254Z,18.62
2018-05-03T08:46:37.930Z,18.81
2018-05-03T08:47:38.606Z,18.88
2018-05-03T08:48:39.292Z,18.74
2018-05-03T08:49:39.970Z,18.78
2018-05-03T08:50:40.646Z,18.90
2018-05-03T08:51:41.326Z,18.83
2018-05-03T08:52:42.007Z,18.86
2018-05-03T08:53:42.686Z,18.77
2018-05-03T08:54:43.364Z,18.78
2018-05-03T08:55:44.076Z,18.93
2018-05-03T08:56:44.726Z,19.09
2018-05-03T08:57:45.402Z,19.08
2018-05-03T08:58:46.081Z,19.30
2018-05-03T08:59:46.763Z,19.00
2018-05-03T09:00:47.442Z,18.96
2018-05-03T09:01:48.199Z,19.37
2018-05-03T09:02:48.818Z,19.51
2018-05-03T09:03:49.488Z,19.56
2018-05-03T09:04:50.165Z,19.54
2018-05-03T09:05:50.847Z,19.52
2018-05-03T09:06:51.527Z,19.55
2018-05-03T09:07:52.292Z,19.45
2018-05-03T09:08:52.891Z,19.45
2018-05-03T09:09:53.572Z,19.56
2018-05-03T09:10:54.254Z,19.52
2018-05-03T09:11:54.934Z,19.47
2018-05-03T09:12:55.616Z,19.41
2018-05-03T09:13:56.297Z,19.33
2018-05-03T09:14:56.975Z,19.30
2018-05-03T09:15:57.653Z,19.26
2018-05-03T09:16:58.334Z,19.29
2018-05-03T09:17:59.015Z,19.26
2018-05-03T09:18:59.698Z,19.45
2018-05-03T09:20:00.384Z,19.54
2018-05-03T09:21:01.066Z,19.41
2018-05-03T09:22:01.832Z,19.27
2018-05-03T09:23:02.436Z,18.96
2018-05-03T09:24:03.127Z,18.93
2018-05-03T09:25:03.797Z,18.90
2018-05-03T09:26:04.479Z,18.78
2018-05-03T09:27:05.157Z,18.99
2018-05-03T09:28:05.833Z,18.98
2018-05-03T09:29:06.513Z,19.29
2018-05-03T09:30:07.192Z,19.27
2018-05-03T09:31:07.875Z,19.36
2018-05-03T09:32:08.566Z,19.40
2018-05-03T09:33:09.248Z,19.41
2018-05-03T09:34:09.932Z,19.52
2018-05-03T09:35:10.624Z,19.64
2018-05-03T09:36:11.304Z,19.56
2018-05-03T09:37:11.982Z,19.76
2018-05-03T09:38:12.661Z,19.73
2018-05-03T09:39:13.388Z,19.99
2018-05-03T09:40:14.036Z,20.18
2018-05-03T09:41:14.714Z,20.31
2018-05-03T09:42:15.393Z,20.31
2018-05-03T09:43:16.073Z,20.47
2018-05-03T09:44:16.755Z,20.62
2018-05-03T09:45:17.438Z,20.59
2018-05-03T09:46:18.119Z,20.72
2018-05-03T09:47:18.801Z,20.70
2018-05-03T09:48:19.486Z,20.92
2018-05-03T09:49:20.165Z,21.12
2018-05-03T09:50:20.846Z,21.29
2018-05-03T09:51:21.528Z,20.96
2018-05-03T09:52:22.240Z,21.22
2018-05-03T09:53:22.894Z,21.32
2018-05-03T09:54:23.575Z,21.52
2018-05-03T09:55:24.256Z,21.46
2018-05-03T09:56:24.939Z,21.58
2018-05-03T09:57:25.620Z,21.55
2018-05-03T09:58:26.302Z,21.72
2018-05-03T09:59:27.099Z,21.85
2018-05-03T10:00:27.664Z,21.79
2018-05-03T10:01:28.348Z,21.75
2018-05-03T10:02:29.037Z,21.37
2018-05-03T10:03:29.718Z,21.50
2018-05-03T10:04:30.399Z,21.73
2018-05-03T10:05:31.078Z,22.06
2018-05-03T10:06:31.757Z,22.07
2018-05-03T10:07:32.439Z,21.93
2018-05-03T10:08:33.127Z,21.93
2018-05-03T10:09:33.801Z,22.06
2018-05-03T10:10:34.480Z,22.20
2018-05-03T10:11:35.161Z,22.29
2018-05-03T10:12:35.840Z,22.36
2018-05-03T10:13:36.522Z,22.30
2018-05-03T10:14:37.259Z,21.82
2018-05-03T10:15:37.885Z,21.92
2018-05-03T10:16:38.575Z,22.04
2018-05-03T10:17:39.258Z,22.11
2018-05-03T10:18:39.948Z,21.55
2018-05-03T10:19:40.628Z,21.50
2018-05-03T10:20:41.306Z,21.50
2018-05-03T10:21:41.995Z,21.52
2018-05-03T10:22:42.678Z,21.66
2018-05-03T10:23:43.360Z,21.69
2018-05-03T10:24:44.043Z,21.54
2018-05-03T10:25:44.722Z,21.72
2018-05-03T10:26:45.405Z,22.11
2018-05-03T10:27:46.089Z,22.11
2018-05-03T10:28:46.769Z,22.36
2018-05-03T10:29:47.459Z,22.28
2018-05-03T10:30:48.136Z,22.10
2018-05-03T10:31:48.818Z,22.18
2018-05-03T10:32:49.501Z,22.30
2018-05-03T10:33:50.185Z,22.35
2018-05-03T10:34:50.867Z,22.55
2018-05-03T10:35:51.599Z,22.75
2018-05-03T10:36:52.227Z,22.60
2018-05-03T10:37:52.915Z,22.70
2018-05-03T10:38:53.599Z,22.81
2018-05-03T10:39:54.281Z,22.81
2018-05-03T10:40:54.959Z,22.98
2018-05-03T10:41:55.693Z,23.09
2018-05-03T10:42:56.349Z,23.18
2018-05-03T10:43:57.013Z,23.03
2018-05-03T10:44:57.702Z,22.84
2018-05-03T10:45:58.378Z,22.96
2018-05-03T10:46:59.067Z,22.87
2018-05-03T10:47:59.743Z,23.09
2018-05-03T10:49:00.464Z,23.05
2018-05-03T10:50:01.120Z,23.17
2018-05-03T10:51:01.802Z,23.00
2018-05-03T10:52:02.490Z,22.91
2018-05-03T10:53:03.169Z,23.18
2018-05-03T10:54:03.853Z,22.94
2018-05-03T10:55:04.533Z,23.00
2018-05-03T10:56:05.221Z,22.94
2018-05-03T10:57:05.905Z,23.02
2018-05-03T10:58:06.588Z,23.13
2018-05-03T10:59:07.270Z,23.21
2018-05-03T11:00:07.951Z,23.24
2018-05-03T11:01:08.632Z,23.28
2018-05-03T11:02:09.322Z,23.28
2018-05-03T11:03:10.010Z,23.51
2018-05-03T11:04:10.698Z,23.65
2018-05-03T11:05:11.383Z,23.39
2018-05-03T11:06:12.056Z,22.88
2018-05-03T11:07:12.734Z,23.05
2018-05-03T11:08:13.417Z,23.32
2018-05-03T11:09:14.098Z,23.50
2018-05-03T11:10:14.792Z,23.54
2018-05-03T11:11:15.652Z,23.34
2018-05-03T11:12:16.153Z,22.98
2018-05-03T11:13:16.837Z,23.28
2018-05-03T11:14:17.518Z,22.62
2018-05-03T11:15:18.210Z,22.81
2018-05-03T11:16:18.880Z,22.70
2018-05-03T11:17:19.561Z,22.45
2018-05-03T11:18:20.244Z,22.25
2018-05-03T11:19:20.929Z,22.11
2018-05-03T11:20:21.614Z,21.83
2018-05-03T11:21:22.296Z,21.96
2018-05-03T11:22:22.977Z,21.92
2018-05-03T11:23:23.659Z,22.10
2018-05-03T11:24:24.344Z,22.18
2018-05-03T11:25:25.032Z,22.32
2018-05-03T11:26:25.710Z,22.33
2018-05-03T11:27:26.396Z,22.48
2018-05-03T11:28:27.082Z,22.26
2018-05-03T11:29:27.764Z,22.22
2018-05-03T11:30:28.447Z,22.35
2018-05-03T11:31:29.135Z,22.44
2018-05-03T11:32:29.812Z,22.45
2018-05-03T11:33:30.500Z,22.22
2018-05-03T11:34:31.195Z,22.43
2018-05-03T11:35:31.873Z,22.50
2018-05-03T11:36:32.564Z,22.48
2018-05-03T11:37:33.243Z,22.47
2018-05-03T11:38:33.922Z,22.44
2018-05-03T11:39:34.613Z,22.63
2018-05-03T11:40:35.298Z,22.57
2018-05-03T11:41:35.982Z,22.47
2018-05-03T11:42:36.745Z,22.45
2018-05-03T11:43:37.353Z,22.60
2018-05-03T11:44:38.028Z,22.51
2018-05-03T11:45:38.725Z,22.80
2018-05-03T11:46:39.406Z,22.90
2018-05-03T11:47:40.096Z,23.00
2018-05-03T11:48:40.857Z,23.15
2018-05-03T11:49:41.458Z,23.40
2018-05-03T11:50:42.141Z,23.51
2018-05-03T11:51:42.824Z,23.78
2018-05-03T11:52:43.519Z,23.96
2018-05-03T11:53:44.201Z,24.13
2018-05-03T11:54:44.897Z,24.14
2018-05-03T11:55:45.579Z,24.20
2018-05-03T11:56:46.260Z,23.93
2018-05-03T11:57:46.948Z,24.24
2018-05-03T11:58:47.636Z,24.69
2018-05-03T11:59:48.317Z,24.69
2018-05-03T12:00:48.997Z,25.04
2018-05-03T12:01:49.677Z,24.99
2018-05-03T12:02:50.368Z,24.89
2018-05-03T12:03:51.052Z,24.74
2018-05-03T12:04:51.731Z,24.42
2018-05-03T12:05:52.437Z,24.92
2018-05-03T12:06:53.117Z,25.31
2018-05-03T12:07:53.800Z,25.68
2018-05-03T12:08:54.487Z,26.25
2018-05-03T12:09:55.169Z,26.44
2018-05-03T12:10:55.867Z,26.59
2018-05-03T12:11:56.547Z,26.85
2018-05-03T12:12:57.239Z,27.05
2018-05-03T12:13:57.939Z,27.03
2018-05-03T12:14:58.624Z,27.17
2018-05-03T12:15:59.313Z,27.12
2018-05-03T12:17:00.006Z,26.88
2018-05-03T12:18:00.692Z,26.85
2018-05-03T12:19:01.380Z,26.95
2018-05-03T12:20:02.063Z,27.25
2018-05-03T12:21:02.750Z,27.48
2018-05-03T12:22:03.433Z,27.67
2018-05-03T12:23:04.118Z,27.98
2018-05-03T12:24:04.807Z,28.27
2018-05-03T12:25:05.494Z,28.41
2018-05-03T12:26:06.175Z,28.74
2018-05-03T12:27:06.856Z,29.22
2018-05-03T12:28:07.539Z,28.45
2018-05-03T12:29:08.230Z,28.57
2018-05-03T12:30:08.915Z,28.82
2018-05-03T12:31:09.602Z,28.74
2018-05-03T12:32:10.288Z,28.97
2018-05-03T12:33:10.972Z,28.98
2018-05-03T12:34:11.660Z,29.27
2018-05-03T12:35:12.360Z,29.08
2018-05-03T12:36:13.048Z,28.79
2018-05-03T12:37:13.743Z,28.67
2018-05-03T12:38:14.430Z,28.88
2018-05-03T12:39:15.119Z,28.82
2018-05-03T12:40:15.805Z,27.96
2018-05-03T12:41:16.494Z,27.98
2018-05-03T12:42:17.184Z,28.11
2018-05-03T12:43:17.867Z,28.14
2018-05-03T12:44:18.562Z,28.04
2018-05-03T12:45:19.251Z,28.08
2018-05-03T12:46:19.936Z,28.12
2018-05-03T12:47:20.624Z,28.26
2018-05-03T12:48:21.309Z,28.88
2018-05-03T12:49:21.993Z,28.94
2018-05-03T12:50:22.680Z,29.35
2018-05-03T12:51:23.366Z,29.34
2018-05-03T12:52:24.052Z,29.51
2018-05-03T12:53:24.753Z,29.54
2018-05-03T12:54:25.451Z,29.57
2018-05-03T12:55:26.123Z,29.38
2018-05-03T12:56:26.819Z,29.65
2018-05-03T12:57:27.511Z,29.53
2018-05-03T12:58:28.202Z,29.66
2018-05-03T12:59:28.891Z,29.81
2018-05-03T13:00:29.578Z,29.60
2018-05-03T13:01:30.269Z,29.90
2018-05-03T13:02:30.956Z,29.47